createdAt,value
2022-10-11T00:00:09.309Z,101580.22
2022-10-11T00:01:11.392Z,101571.38
2022-10-11T00:02:14.459Z,101581.22
2022-10-11T00:03:29.801Z,101584.06
2022-10-11T00:04:44.852Z,101584.25
2022-10-11T00:05:59.753Z,101590.56
2022-10-11T00:07:14.844Z,101593.22
2022-10-11T00:08:30.176Z,101585.41
2022-10-11T00:09:47.399Z,101594.44
2022-10-11T00:11:06.141Z,101600.75
2022-10-11T00:12:21.292Z,101598.09
2022-10-11T00:13:36.751Z,101594.75
2022-10-11T00:14:52.894Z,101601.09
2022-10-11T00:16:12.882Z,101605.75
2022-10-11T00:17:27.752Z,101606.78
2022-10-11T00:18:43.224Z,101611.63
2022-10-11T00:19:59.528Z,101602.59
2022-10-11T00:21:15.977Z,101602.78
2022-10-11T00:22:30.970Z,101610.13
2022-10-11T00:23:46.042Z,101614.47
2022-10-11T00:25:02.673Z,101613.81
2022-10-11T00:26:17.685Z,101608.81
2022-10-11T00:27:32.693Z,101619.47
2022-10-11T00:28:47.975Z,101612.63
2022-10-11T00:30:05.359Z,101615.31
2022-10-11T00:31:21.013Z,101614.50
2022-10-11T00:32:37.481Z,101616.50
2022-10-11T00:33:54.116Z,101619.34
2022-10-11T00:35:09.927Z,101621.16
2022-10-11T00:36:25.716Z,101624.84
2022-10-11T00:37:40.924Z,101624.00
2022-10-11T00:38:55.754Z,101618.00
2022-10-11T00:40:16.627Z,101633.16
2022-10-11T00:41:32.255Z,101635.81
2022-10-11T00:42:47.883Z,101645.84
2022-10-11T00:44:15.976Z,101637.69
2022-10-11T00:46:03.731Z,101637.69
2022-10-11T00:47:22.664Z,101632.19
2022-10-11T00:48:42.460Z,101636.50
2022-10-11T00:50:02.222Z,101623.00
2022-10-11T00:51:22.119Z,101629.81
2022-10-11T00:52:42.105Z,101628.00
2022-10-11T00:53:57.849Z,101632.16
2022-10-11T00:55:15.443Z,101626.63
2022-10-11T00:56:34.226Z,101627.31
2022-10-11T00:57:52.921Z,101633.47
2022-10-11T00:59:13.514Z,101629.81
2022-10-11T01:00:28.949Z,101630.13
2022-10-11T01:01:44.083Z,101634.44
2022-10-11T01:03:01.811Z,101638.78
2022-10-11T01:04:17.032Z,101637.09
2022-10-11T01:05:33.073Z,101638.44
2022-10-11T01:06:49.832Z,101642.75
2022-10-11T01:08:05.890Z,101636.44
2022-10-11T01:09:23.348Z,101640.09
2022-10-11T01:10:38.572Z,101643.44
2022-10-11T01:11:56.558Z,101639.94
2022-10-11T01:13:22.275Z,101634.63
2022-10-11T01:15:05.348Z,101647.78
2022-10-11T01:16:29.320Z,101641.44
2022-10-11T01:17:53.000Z,101642.44
2022-10-11T01:19:27.365Z,101640.75
2022-10-11T01:20:54.783Z,101639.94
2022-10-11T01:22:25.101Z,101648.94
2022-10-11T01:24:19.588Z,101646.09
2022-10-11T01:25:45.425Z,101644.44
2022-10-11T01:27:31.929Z,101647.13
2022-10-11T01:28:52.412Z,101649.94
2022-10-11T01:30:27.934Z,101651.09
2022-10-11T01:31:49.118Z,101652.13
2022-10-11T01:33:15.500Z,101664.78
2022-10-11T01:34:38.222Z,101651.63
2022-10-11T01:36:03.920Z,101652.66
2022-10-11T01:37:28.332Z,101651.13
2022-10-11T01:38:48.890Z,101661.13
2022-10-11T01:40:11.123Z,101658.81
2022-10-11T01:41:32.399Z,101660.81
2022-10-11T01:42:47.797Z,101649.66
2022-10-11T01:44:04.810Z,101668.31
2022-10-11T01:45:21.718Z,101651.69
2022-10-11T01:46:38.067Z,101650.84
2022-10-11T01:48:05.202Z,101659.81
2022-10-11T01:49:21.995Z,101668.84
2022-10-11T01:50:47.252Z,101665.50
2022-10-11T01:52:07.425Z,101659.34
2022-10-11T01:53:47.510Z,101660.50
2022-10-11T01:55:18.224Z,101655.53
2022-10-11T01:57:05.021Z,101663.53
2022-10-11T01:58:34.845Z,101662.84
2022-10-11T01:59:59.666Z,101661.19
2022-10-11T02:01:28.823Z,101664.03
2022-10-11T02:02:54.199Z,101670.34
2022-10-11T02:04:16.424Z,101668.69
2022-10-11T02:05:40.215Z,101674.19
2022-10-11T02:07:01.430Z,101670.69
2022-10-11T02:08:24.184Z,101670.84
2022-10-11T02:09:46.503Z,101674.69
2022-10-11T02:11:07.802Z,101677.84
2022-10-11T02:12:29.863Z,101672.69
2022-10-11T02:13:52.052Z,101678.34
2022-10-11T02:15:10.282Z,101677.03
2022-10-11T02:16:31.289Z,101677.03
2022-10-11T02:17:51.054Z,101678.69
2022-10-11T02:19:09.251Z,101684.00
2022-10-11T02:20:27.282Z,101684.84
2022-10-11T02:21:45.676Z,101683.16
2022-10-11T02:23:04.702Z,101684.84
2022-10-11T02:24:27.273Z,101691.84
2022-10-11T02:25:44.897Z,101683.84
2022-10-11T02:27:02.915Z,101679.34
2022-10-11T02:28:23.767Z,101682.69
2022-10-11T02:29:42.943Z,101688.03
2022-10-11T02:31:01.230Z,101691.50
2022-10-11T02:32:18.466Z,101688.66
2022-10-11T02:33:39.996Z,101688.50
2022-10-11T02:34:59.239Z,101693.81
2022-10-11T02:36:31.302Z,101690.84
2022-10-11T02:37:54.150Z,101686.16
2022-10-11T02:39:15.136Z,101688.81
2022-10-11T02:40:34.231Z,101684.16
2022-10-11T02:41:54.225Z,101687.66
2022-10-11T02:43:17.550Z,101687.66
2022-10-11T02:44:41.557Z,101693.00
2022-10-11T02:46:00.565Z,101686.81
2022-10-11T02:47:16.237Z,101694.81
2022-10-11T02:48:33.852Z,101688.50
2022-10-11T02:49:49.123Z,101694.00
2022-10-11T02:51:05.545Z,101695.84
2022-10-11T02:52:21.189Z,101696.81
2022-10-11T02:53:37.362Z,101694.31
2022-10-11T02:54:52.371Z,101695.34
2022-10-11T02:56:08.170Z,101694.50
2022-10-11T02:57:24.002Z,101702.66
2022-10-11T02:58:39.036Z,101701.81
2022-10-11T02:59:54.071Z,101703.84
2022-10-11T03:01:10.733Z,101708.34
2022-10-11T03:02:25.689Z,101706.00
2022-10-11T03:03:41.001Z,101707.84
2022-10-11T03:04:57.681Z,101715.84
2022-10-11T03:06:14.061Z,101716.00
2022-10-11T03:07:28.896Z,101713.50
2022-10-11T03:08:43.956Z,101709.31
2022-10-11T03:09:58.986Z,101707.66
2022-10-11T03:11:13.953Z,101711.34
2022-10-11T03:12:28.966Z,101715.00
2022-10-11T03:13:47.221Z,101718.84
2022-10-11T03:15:02.277Z,101714.66
2022-10-11T03:16:18.926Z,101723.50
2022-10-11T03:17:37.491Z,101725.31
2022-10-11T03:18:53.642Z,101727.31
2022-10-11T03:20:09.754Z,101729.16
2022-10-11T03:21:37.098Z,101732.63
2022-10-11T03:22:52.090Z,101736.16
2022-10-11T03:24:07.929Z,101748.47
2022-10-11T03:25:23.704Z,101747.66
2022-10-11T03:26:38.738Z,101760.81
2022-10-11T03:27:53.739Z,101765.97
2022-10-11T03:29:08.786Z,101773.13
2022-10-11T03:30:23.785Z,101778.13
2022-10-11T03:31:38.763Z,101767.47
2022-10-11T03:32:53.850Z,101764.16
2022-10-11T03:34:08.835Z,101767.16
2022-10-11T03:35:23.812Z,101769.66
2022-10-11T03:36:38.865Z,101765.13
2022-10-11T03:37:53.834Z,101765.00
2022-10-11T03:39:08.918Z,101763.97
2022-10-11T03:40:23.881Z,101768.47
2022-10-11T03:41:52.397Z,101768.47
2022-10-11T03:43:07.560Z,101769.31
2022-10-11T03:44:23.859Z,101765.00
2022-10-11T03:45:39.356Z,101766.81
2022-10-11T03:46:55.588Z,101765.13
2022-10-11T03:48:11.260Z,101781.13
2022-10-11T03:49:27.277Z,101766.13
2022-10-11T03:50:42.188Z,101766.31
2022-10-11T03:51:57.183Z,101769.97
2022-10-11T03:53:12.246Z,101765.63
2022-10-11T03:54:27.529Z,101771.97
2022-10-11T03:55:43.821Z,101770.47
2022-10-11T03:56:59.253Z,101776.78
2022-10-11T03:58:15.455Z,101772.63
2022-10-11T03:59:30.544Z,101771.97
2022-10-11T04:00:45.535Z,101773.78
2022-10-11T04:02:00.528Z,101771.47
2022-10-11T04:03:17.095Z,101775.25
2022-10-11T04:04:32.167Z,101786.06
2022-10-11T04:05:47.280Z,101785.38
2022-10-11T04:07:18.224Z,101780.41
2022-10-11T04:08:33.197Z,101787.72
2022-10-11T04:09:49.941Z,101777.38
2022-10-11T04:11:05.071Z,101785.53
2022-10-11T04:12:21.595Z,101781.34
2022-10-11T04:13:38.016Z,101787.00
2022-10-11T04:14:55.062Z,101784.50
2022-10-11T04:16:11.253Z,101792.69
2022-10-11T04:17:26.292Z,101781.34
2022-10-11T04:18:41.295Z,101795.00
2022-10-11T04:19:56.304Z,101791.66
2022-10-11T04:21:11.308Z,101791.81
2022-10-11T04:22:26.318Z,101794.63
2022-10-11T04:23:41.373Z,101793.16
2022-10-11T04:24:56.390Z,101796.78
2022-10-11T04:26:11.504Z,101803.28
2022-10-11T04:27:28.277Z,101797.28
2022-10-11T04:28:44.772Z,101805.44
2022-10-11T04:30:01.280Z,101806.41
2022-10-11T04:31:16.391Z,101800.44
2022-10-11T04:32:31.403Z,101803.22
2022-10-11T04:33:46.259Z,101808.88
2022-10-11T04:35:01.296Z,101815.22
2022-10-11T04:36:16.303Z,101814.53
2022-10-11T04:37:31.344Z,101808.53
2022-10-11T04:38:46.333Z,101815.84
2022-10-11T04:40:01.419Z,101820.50
2022-10-11T04:41:17.182Z,101817.16
2022-10-11T04:42:32.958Z,101815.47
2022-10-11T04:43:48.325Z,101813.13
2022-10-11T04:45:05.464Z,101817.63
2022-10-11T04:46:21.565Z,101819.47
2022-10-11T04:47:38.089Z,101824.94
2022-10-11T04:48:54.878Z,101823.25
2022-10-11T04:50:11.205Z,101822.75
2022-10-11T04:51:26.205Z,101823.59
2022-10-11T04:52:41.204Z,101826.41
2022-10-11T04:53:56.113Z,101829.06
2022-10-11T04:55:11.953Z,101820.19
2022-10-11T04:56:27.776Z,101823.22
2022-10-11T04:57:42.798Z,101825.03
2022-10-11T04:58:57.805Z,101827.88
2022-10-11T05:00:14.098Z,101834.34
2022-10-11T05:01:29.397Z,101841.34
2022-10-11T05:02:44.452Z,101839.00
2022-10-11T05:03:59.515Z,101844.16
2022-10-11T05:05:17.566Z,101844.31
2022-10-11T05:06:33.725Z,101847.81
2022-10-11T05:07:49.524Z,101847.13
2022-10-11T05:09:06.065Z,101847.97
2022-10-11T05:10:21.074Z,101854.28
2022-10-11T05:11:37.758Z,101848.94
2022-10-11T05:12:54.157Z,101850.78
2022-10-11T05:14:09.383Z,101856.09
2022-10-11T05:15:25.848Z,101861.41
2022-10-11T05:16:42.465Z,101856.94
2022-10-11T05:17:57.468Z,101858.75
2022-10-11T05:19:12.494Z,101851.78
2022-10-11T05:20:27.915Z,101860.59
2022-10-11T05:21:44.101Z,101858.25
2022-10-11T05:22:59.128Z,101860.75
2022-10-11T05:24:14.144Z,101866.09
2022-10-11T05:25:29.152Z,101870.56
2022-10-11T05:26:45.935Z,101867.22
2022-10-11T05:28:02.404Z,101861.88
2022-10-11T05:29:17.547Z,101848.53
2022-10-11T05:30:34.104Z,101867.22
2022-10-11T05:31:50.624Z,101868.22
2022-10-11T05:33:05.704Z,101875.34
2022-10-11T05:34:20.698Z,101873.69
2022-10-11T05:35:35.645Z,101873.69
2022-10-11T05:36:50.709Z,101875.50
2022-10-11T05:38:05.664Z,101880.84
2022-10-11T05:39:20.767Z,101881.00
2022-10-11T05:40:36.095Z,101881.97
2022-10-11T05:41:52.944Z,101880.16
2022-10-11T05:43:09.376Z,101885.47
2022-10-11T05:44:25.897Z,101884.63
2022-10-11T05:45:43.631Z,101885.47
2022-10-11T05:46:59.054Z,101883.81
2022-10-11T05:48:28.548Z,101892.59
2022-10-11T05:49:43.806Z,101893.59
2022-10-11T05:51:03.005Z,101886.91
2022-10-11T05:52:21.502Z,101889.28
2022-10-11T05:53:37.197Z,101895.44
2022-10-11T05:54:53.539Z,101896.44
2022-10-11T05:56:20.359Z,101900.09
2022-10-11T05:57:36.322Z,101897.28
2022-10-11T05:58:52.063Z,101898.09
2022-10-11T06:00:09.186Z,101897.13
2022-10-11T06:01:31.052Z,101906.75
2022-10-11T06:02:47.577Z,101909.25
2022-10-11T06:04:02.641Z,101906.44
2022-10-11T06:05:19.501Z,101903.78
2022-10-11T06:06:35.785Z,101915.78
2022-10-11T06:07:50.806Z,101912.81
2022-10-11T06:09:06.120Z,101917.81
2022-10-11T06:10:22.566Z,101915.84
2022-10-11T06:11:42.618Z,101916.38
2022-10-11T06:13:12.715Z,101920.41
2022-10-11T06:14:47.978Z,101921.91
2022-10-11T06:16:17.831Z,101929.56
2022-10-11T06:17:54.049Z,101933.94
2022-10-11T06:19:29.084Z,101938.94
2022-10-11T06:21:02.599Z,101933.44
2022-10-11T06:22:34.321Z,101945.63
2022-10-11T06:24:04.140Z,101937.47
2022-10-11T06:25:37.161Z,101934.66
2022-10-11T06:27:12.266Z,101932.69
2022-10-11T06:28:50.815Z,101937.00
2022-10-11T06:30:29.875Z,101931.00
2022-10-11T06:32:18.224Z,101937.53
2022-10-11T06:33:50.734Z,101937.38
2022-10-11T06:35:21.179Z,101945.19
2022-10-11T06:36:56.540Z,101934.56
2022-10-11T06:38:32.297Z,101938.91
2022-10-11T06:40:23.699Z,101945.72
2022-10-11T06:42:01.569Z,101950.72
2022-10-11T06:43:35.183Z,101940.75
2022-10-11T06:45:08.158Z,101937.78
2022-10-11T06:46:42.753Z,101947.28
2022-10-11T06:48:24.616Z,101946.97
2022-10-11T06:50:00.749Z,101949.47
2022-10-11T06:51:48.705Z,101952.66
2022-10-11T06:53:21.198Z,101963.84
2022-10-11T06:55:00.708Z,101957.19
2022-10-11T06:56:34.272Z,101963.03
2022-10-11T06:58:15.379Z,101965.25
2022-10-11T06:59:45.624Z,101961.25
2022-10-11T07:01:19.072Z,101955.91
2022-10-11T07:03:01.344Z,101972.97
2022-10-11T07:04:34.878Z,101968.69
2022-10-11T07:06:21.475Z,101977.03
2022-10-11T07:07:57.047Z,101978.38
2022-10-11T07:09:27.170Z,101974.41
2022-10-11T07:11:09.993Z,101972.94
2022-10-11T07:12:45.924Z,101973.44
2022-10-11T07:14:18.799Z,101978.28
2022-10-11T07:15:52.202Z,101984.13
2022-10-11T07:17:24.777Z,101982.81
2022-10-11T07:19:00.737Z,101976.16
2022-10-11T07:20:35.068Z,101985.53
2022-10-11T07:22:07.461Z,101986.84
2022-10-11T07:23:39.658Z,101979.34
2022-10-11T07:25:24.193Z,101985.72
2022-10-11T07:26:54.827Z,101989.06
2022-10-11T07:28:24.337Z,101987.72
2022-10-11T07:30:06.121Z,101994.41
2022-10-11T07:31:48.441Z,101986.91
2022-10-11T07:33:20.608Z,101985.56
2022-10-11T07:34:53.289Z,101989.25
2022-10-11T07:36:31.907Z,101992.44
2022-10-11T07:38:17.063Z,101999.63
2022-10-11T07:39:45.772Z,101994.81
2022-10-11T07:41:15.854Z,102004.97
2022-10-11T07:42:48.361Z,102006.28
2022-10-11T07:44:56.225Z,101999.28
2022-10-11T07:46:37.616Z,102001.50
2022-10-11T07:48:11.354Z,101996.31
2022-10-11T07:49:52.506Z,101997.63
2022-10-11T07:51:27.116Z,102002.50
2022-10-11T07:53:00.455Z,102011.81
2022-10-11T07:54:41.728Z,102007.81
2022-10-11T07:56:16.432Z,102012.66
2022-10-11T07:57:45.982Z,102011.31
2022-10-11T07:59:21.304Z,102014.34
2022-10-11T08:00:55.684Z,102014.66
2022-10-11T08:02:43.472Z,102017.81
2022-10-11T08:04:15.434Z,102015.63
2022-10-11T08:05:52.339Z,102022.97
2022-10-11T08:07:31.405Z,102021.66
2022-10-11T08:09:07.434Z,102024.66
2022-10-11T08:10:43.215Z,102025.81
2022-10-11T08:12:16.896Z,102026.13
2022-10-11T08:13:46.109Z,102023.97
2022-10-11T08:15:15.153Z,102029.63
2022-10-11T08:16:44.625Z,102031.16
2022-10-11T08:18:17.594Z,102033.28
2022-10-11T08:20:01.743Z,102027.25
2022-10-11T08:21:32.838Z,102027.75
2022-10-11T08:23:21.506Z,102035.28
2022-10-11T08:25:00.567Z,102029.56
2022-10-11T08:26:35.248Z,102032.56
2022-10-11T08:28:09.802Z,102026.00
2022-10-11T08:29:42.073Z,102029.84
2022-10-11T08:31:23.735Z,102030.16
2022-10-11T08:32:57.558Z,102035.81
2022-10-11T08:34:26.541Z,102033.47
2022-10-11T08:36:05.923Z,102037.28
2022-10-11T08:37:38.517Z,102038.41
2022-10-11T08:39:16.395Z,102047.75
2022-10-11T08:40:52.722Z,102040.03
2022-10-11T08:42:33.587Z,102041.38
2022-10-11T08:44:21.995Z,102035.31
2022-10-11T08:46:03.168Z,102034.75
2022-10-11T08:47:12.206Z,102039.94
2022-10-11T08:48:18.174Z,102043.75
2022-10-11T08:49:25.692Z,102038.22
2022-10-11T08:50:27.958Z,102045.91
2022-10-11T08:51:34.874Z,102048.41
2022-10-11T08:52:47.865Z,102047.88
2022-10-11T08:53:57.626Z,102042.16
2022-10-11T08:55:05.451Z,102038.28
2022-10-11T08:56:09.877Z,102044.97
2022-10-11T08:57:17.277Z,102050.81
2022-10-11T08:58:24.336Z,102046.09
2022-10-11T08:59:34.067Z,102046.59
2022-10-11T09:00:38.284Z,102049.75
2022-10-11T09:01:47.512Z,102051.03
2022-10-11T09:03:08.689Z,102056.25
2022-10-11T09:04:15.520Z,102051.38
2022-10-11T09:05:20.644Z,102051.00
2022-10-11T09:06:37.467Z,102043.81
2022-10-11T09:07:48.929Z,102055.00
2022-10-11T09:09:04.611Z,102050.97
2022-10-11T09:10:36.402Z,102042.78
2022-10-11T09:11:53.787Z,102047.91
2022-10-11T09:13:08.868Z,102051.06
2022-10-11T09:14:50.057Z,102049.66
2022-10-11T09:16:00.306Z,102052.34
2022-10-11T09:17:08.772Z,102055.13
2022-10-11T09:18:29.048Z,102056.63
2022-10-11T09:20:11.959Z,102050.91
2022-10-11T09:21:23.459Z,102041.03
2022-10-11T09:22:33.509Z,102063.06
2022-10-11T09:23:52.438Z,102065.19
2022-10-11T09:25:13.069Z,102059.25
2022-10-11T09:26:23.129Z,102070.28
2022-10-11T09:27:50.373Z,102079.63
2022-10-11T09:29:03.116Z,102073.72
2022-10-11T09:30:11.765Z,102059.91
2022-10-11T09:31:14.941Z,102064.09
2022-10-11T09:32:21.057Z,102059.78
2022-10-11T09:33:34.245Z,102057.00
2022-10-11T09:34:38.197Z,102066.31
2022-10-11T09:35:46.408Z,102058.91
2022-10-11T09:36:56.283Z,102067.91
2022-10-11T09:38:05.391Z,102062.16
2022-10-11T09:39:19.651Z,102062.63
2022-10-11T09:40:51.521Z,102061.72
2022-10-11T09:41:59.037Z,102060.94
2022-10-11T09:43:02.161Z,102062.25
2022-10-11T09:44:08.573Z,102054.94
2022-10-11T09:45:16.747Z,102064.44
2022-10-11T09:46:23.848Z,102070.09
2022-10-11T09:47:30.356Z,102072.69
2022-10-11T09:48:40.986Z,102068.44
2022-10-11T09:49:47.666Z,102066.47
2022-10-11T09:50:51.731Z,102073.38
2022-10-11T09:51:57.904Z,102084.84
2022-10-11T09:53:04.873Z,102060.72
2022-10-11T09:54:10.480Z,102072.84
2022-10-11T09:55:30.504Z,102068.38
2022-10-11T09:56:36.143Z,102058.91
2022-10-11T09:57:40.942Z,102080.53
2022-10-11T09:58:43.115Z,102081.97
2022-10-11T09:59:59.546Z,102083.28
2022-10-11T10:01:08.009Z,102076.84
2022-10-11T10:02:23.269Z,102073.78
2022-10-11T10:03:31.678Z,102077.09
2022-10-11T10:04:33.898Z,102082.28
2022-10-11T10:05:38.541Z,102078.41
2022-10-11T10:06:41.365Z,102082.50
2022-10-11T10:08:04.530Z,102086.47
2022-10-11T10:09:30.372Z,102093.50
2022-10-11T10:10:42.485Z,102086.03
2022-10-11T10:11:44.590Z,102090.38
2022-10-11T10:12:54.843Z,102093.06
2022-10-11T10:13:58.084Z,102085.81
2022-10-11T10:15:07.498Z,102094.28
2022-10-11T10:16:22.206Z,102099.66
2022-10-11T10:17:24.313Z,102092.59
2022-10-11T10:18:35.303Z,102100.69
2022-10-11T10:19:44.722Z,102099.22
2022-10-11T10:20:53.348Z,102103.75
2022-10-11T10:21:57.708Z,102099.22
2022-10-11T10:23:02.922Z,102097.38
2022-10-11T10:24:18.241Z,102096.34
2022-10-11T10:25:24.552Z,102095.13
2022-10-11T10:26:28.541Z,102091.19
2022-10-11T10:27:31.799Z,102100.38
2022-10-11T10:28:35.004Z,102094.41
2022-10-11T10:29:37.450Z,102096.50
2022-10-11T10:30:54.376Z,102095.94
2022-10-11T10:32:14.648Z,102092.66
2022-10-11T10:33:20.909Z,102094.94
2022-10-11T10:34:29.541Z,102090.59
2022-10-11T10:35:36.460Z,102096.44
2022-10-11T10:36:43.339Z,102101.44
2022-10-11T10:37:54.149Z,102100.41
2022-10-11T10:39:02.698Z,102096.72
2022-10-11T10:40:09.310Z,102092.53
2022-10-11T10:41:15.718Z,102101.50
2022-10-11T10:42:20.588Z,102086.78
2022-10-11T10:43:27.679Z,102083.06
2022-10-11T10:44:29.872Z,102098.66
2022-10-11T10:45:45.396Z,102104.22
2022-10-11T10:46:58.580Z,102095.97
2022-10-11T10:48:19.428Z,102099.50
2022-10-11T10:50:55.907Z,102101.13
2022-10-11T10:52:20.560Z,102100.13
2022-10-11T10:53:30.075Z,102092.66
2022-10-11T10:54:42.340Z,102097.69
2022-10-11T10:55:46.858Z,102093.75
2022-10-11T10:56:53.851Z,102096.25
2022-10-11T10:58:18.638Z,102095.22
2022-10-11T10:59:41.981Z,102091.69
2022-10-11T11:00:47.117Z,102099.97
2022-10-11T11:01:57.609Z,102097.03
2022-10-11T11:03:04.140Z,102102.44
2022-10-11T11:04:14.684Z,102093.50
2022-10-11T11:05:23.889Z,102096.44
2022-10-11T11:06:36.620Z,102102.66
2022-10-11T11:07:44.373Z,102104.31
2022-10-11T11:08:58.705Z,102105.16
2022-10-11T11:10:05.644Z,102100.63
2022-10-11T11:11:19.462Z,102102.25
2022-10-11T11:12:34.460Z,102103.91
2022-10-11T11:13:42.620Z,102110.97
2022-10-11T11:14:55.988Z,102107.25
2022-10-11T11:16:18.783Z,102102.91
2022-10-11T11:17:30.019Z,102100.63
2022-10-11T11:18:42.600Z,102102.66
2022-10-11T11:19:58.773Z,102098.69
2022-10-11T11:21:13.023Z,102103.88
2022-10-11T11:22:32.844Z,102101.78
2022-10-11T11:23:43.656Z,102105.50
2022-10-11T11:24:53.091Z,102112.31
2022-10-11T11:26:07.545Z,102112.69
2022-10-11T11:27:21.247Z,102112.06
2022-10-11T11:28:37.791Z,102114.94
2022-10-11T11:29:55.225Z,102111.63
2022-10-11T11:31:05.317Z,102116.16
2022-10-11T11:32:18.642Z,102111.81
2022-10-11T11:33:39.313Z,102113.66
2022-10-11T11:34:47.704Z,102113.88
2022-10-11T11:35:54.531Z,102120.94
2022-10-11T11:37:01.556Z,102114.72
2022-10-11T11:38:14.433Z,102128.16
2022-10-11T11:39:25.548Z,102115.75
2022-10-11T11:40:35.505Z,102123.81
2022-10-11T11:41:44.669Z,102119.63
2022-10-11T11:42:50.682Z,102122.59
2022-10-11T11:44:03.665Z,102116.16
2022-10-11T11:45:16.932Z,102114.09
2022-10-11T11:46:22.692Z,102113.53
2022-10-11T11:47:31.195Z,102122.88
2022-10-11T11:48:33.870Z,102114.19
2022-10-11T11:49:39.274Z,102111.16
2022-10-11T11:50:47.284Z,102107.22
2022-10-11T11:51:52.337Z,102107.66
2022-10-11T11:52:58.306Z,102108.09
2022-10-11T11:54:18.757Z,102114.94
2022-10-11T11:55:28.011Z,102112.06
2022-10-11T11:56:43.318Z,102111.88
2022-10-11T11:57:57.964Z,102111.88
2022-10-11T11:59:07.654Z,102113.06
2022-10-11T12:00:15.977Z,102109.16
2022-10-11T12:01:31.519Z,102112.88
2022-10-11T12:02:50.453Z,102114.94
2022-10-11T12:03:55.474Z,102113.28
2022-10-11T12:04:59.130Z,102108.94
2022-10-11T12:06:24.299Z,102101.47
2022-10-11T12:07:30.254Z,102111.22
2022-10-11T12:08:35.725Z,102110.19
2022-10-11T12:09:45.418Z,102108.56
2022-10-11T12:10:55.829Z,102109.84
2022-10-11T12:12:00.984Z,102106.97
2022-10-11T12:13:09.132Z,102114.00
2022-10-11T12:14:27.596Z,102116.47
2022-10-11T12:15:32.389Z,102108.19
2022-10-11T12:16:35.521Z,102110.25
2022-10-11T12:18:02.483Z,102104.50
2022-10-11T12:19:05.620Z,102110.50
2022-10-11T12:20:17.485Z,102101.16
2022-10-11T12:21:26.580Z,102113.00
2022-10-11T12:23:00.741Z,102107.44
2022-10-11T12:24:11.907Z,102105.53
2022-10-11T12:25:51.287Z,102110.72
2022-10-11T12:26:58.986Z,102113.25
2022-10-11T12:28:48.771Z,102104.97
2022-10-11T12:29:53.360Z,102104.56
2022-10-11T12:31:04.758Z,102113.28
2022-10-11T12:32:50.212Z,102101.66
2022-10-11T12:34:17.071Z,102106.00
2022-10-11T12:36:05.643Z,102095.44
2022-10-11T12:37:50.603Z,102100.19
2022-10-11T12:39:27.322Z,102097.91
2022-10-11T12:40:42.276Z,102107.22
2022-10-11T12:41:54.599Z,102102.03
2022-10-11T12:43:29.341Z,102102.41
2022-10-11T12:44:33.206Z,102099.09
2022-10-11T12:45:41.427Z,102103.84
2022-10-11T12:47:14.750Z,102098.88
2022-10-11T12:48:52.804Z,102102.59
2022-10-11T12:50:19.213Z,102101.56
2022-10-11T12:51:37.961Z,102099.47
2022-10-11T12:52:52.259Z,102092.88
2022-10-11T12:54:28.286Z,102089.59
2022-10-11T12:55:49.502Z,102102.28
2022-10-11T12:57:06.345Z,102079.47
2022-10-11T12:58:30.455Z,102091.75
2022-10-11T12:59:32.812Z,102088.25
2022-10-11T13:00:45.615Z,102086.81
2022-10-11T13:01:52.236Z,102088.06
2022-10-11T13:02:54.668Z,102091.00
2022-10-11T13:04:05.494Z,102093.31
2022-10-11T13:05:15.563Z,102087.72
2022-10-11T13:06:21.705Z,102092.88
2022-10-11T13:07:23.987Z,102097.84
2022-10-11T13:08:32.517Z,102093.47
2022-10-11T13:09:39.164Z,102091.81
2022-10-11T13:10:44.518Z,102095.56
2022-10-11T13:11:51.765Z,102088.50
2022-10-11T13:12:55.194Z,102089.34
2022-10-11T13:14:01.347Z,102089.34
2022-10-11T13:15:09.837Z,102083.94
2022-10-11T13:16:15.936Z,102086.66
2022-10-11T13:17:22.794Z,102084.78
2022-10-11T13:18:26.484Z,102055.25
2022-10-11T13:19:30.894Z,102083.09
2022-10-11T13:20:42.434Z,102087.69
2022-10-11T13:21:54.362Z,102080.81
2022-10-11T13:22:57.633Z,102080.38
2022-10-11T13:24:03.356Z,102081.44
2022-10-11T13:25:06.775Z,102077.69
2022-10-11T13:26:09.926Z,102091.78
2022-10-11T13:27:19.868Z,102082.00
2022-10-11T13:28:23.910Z,102084.72
2022-10-11T13:29:32.184Z,102091.56
2022-10-11T13:30:38.371Z,102084.13
2022-10-11T13:31:44.911Z,102078.75
2022-10-11T13:32:48.525Z,102073.56
2022-10-11T13:33:54.892Z,102081.06
2022-10-11T13:35:01.757Z,102077.13
2022-10-11T13:36:09.648Z,102075.69
2022-10-11T13:37:18.075Z,102071.13
2022-10-11T13:38:23.226Z,102078.81
2022-10-11T13:39:31.269Z,102079.00
2022-10-11T13:40:35.472Z,102084.41
2022-10-11T13:41:37.765Z,102075.09
2022-10-11T13:42:41.069Z,102081.13
2022-10-11T13:43:44.240Z,102079.06
2022-10-11T13:44:48.158Z,102085.72
2022-10-11T13:45:50.406Z,102080.97
2022-10-11T13:46:55.207Z,102074.53
2022-10-11T13:47:57.584Z,102082.63
2022-10-11T13:49:02.432Z,102082.81
2022-10-11T13:50:18.513Z,102084.88
2022-10-11T13:51:30.252Z,102087.38
2022-10-11T13:52:32.598Z,102085.06
2022-10-11T13:53:36.315Z,102081.09
2022-10-11T13:55:09.152Z,102087.28
2022-10-11T13:56:12.939Z,102085.22
2022-10-11T13:57:15.391Z,102081.47
2022-10-11T13:58:27.801Z,102088.28
2022-10-11T13:59:31.105Z,102088.88
2022-10-11T14:00:37.303Z,102079.72
2022-10-11T14:01:44.928Z,102082.19
2022-10-11T14:02:51.031Z,102076.78
2022-10-11T14:03:57.725Z,102075.72
2022-10-11T14:05:01.085Z,102075.31
2022-10-11T14:06:04.878Z,102081.25
2022-10-11T14:07:22.020Z,102075.00
2022-10-11T14:08:30.799Z,102077.28
2022-10-11T14:09:36.670Z,102077.06
2022-10-11T14:10:39.014Z,102074.31
2022-10-11T14:11:42.138Z,102073.50
2022-10-11T14:12:44.471Z,102075.75
2022-10-11T14:13:49.772Z,102072.63
2022-10-11T14:14:52.123Z,102073.41
2022-10-11T14:16:03.469Z,102073.41
2022-10-11T14:17:11.408Z,102076.47
2022-10-11T14:18:35.682Z,102077.28
2022-10-11T14:19:38.179Z,102083.88
2022-10-11T14:20:41.849Z,102084.25
2022-10-11T14:21:54.645Z,102088.34
2022-10-11T14:22:56.714Z,102077.16
2022-10-11T14:24:01.944Z,102081.03
2022-10-11T14:25:04.813Z,102082.84
2022-10-11T14:26:11.545Z,102079.16
2022-10-11T14:27:28.894Z,102084.09
2022-10-11T14:28:31.000Z,102084.47
2022-10-11T14:29:38.922Z,102077.81
2022-10-11T14:30:43.029Z,102082.34
2022-10-11T14:31:45.211Z,102083.59
2022-10-11T14:32:50.198Z,102091.84
2022-10-11T14:33:54.905Z,102087.47
2022-10-11T14:34:58.935Z,102086.03
2022-10-11T14:36:02.258Z,102094.09
2022-10-11T14:37:04.710Z,102083.34
2022-10-11T14:38:07.917Z,102087.06
2022-10-11T14:39:14.731Z,102091.59
2022-10-11T14:40:20.437Z,102085.38
2022-10-11T14:41:22.626Z,102084.53
2022-10-11T14:42:25.728Z,102090.75
2022-10-11T14:43:28.866Z,102087.06
2022-10-11T14:44:31.334Z,102085.19